Terminal Aerodrome Forecast
Issued by NWS

Home | Current Version | Previous Version | Text Only | Print | Product List | Glossary On
Versions: 1 2 3 4 5 6 7 8 9 10 11 12 13 14 15 16 17
000
FTUS43 KEAX 241738
TAFSTJ
TAF
KSTJ 241738Z 2418/2518 16024G32KT P6SM FEW100
     FM250100 17011KT P6SM FEW200
     FM251400 17012G20KT P6SM SCT040 BKN100
      AMD NOT SKED=

USA.gov is the U.S. government's official web portal to all federal, state and local government web resources and services.